Date,TemperatureHighF,TemperatureAvgF,TemperatureLowF,DewpointHighF,DewpointAvgF,DewpointLowF,HumidityHigh,HumidityAvg,HumidityLow,PressureMaxIn,PressureMinIn,WindSpeedMaxMPH,WindSpeedAvgMPH,GustSpeedMaxMPH,PrecipitationSumIn
2013-1-1,39.7,24.8,12.7,23.0,15.3,9.0,89,70,38,30.39,30.27,7,1,11,0.00
2013-1-2,45.5,27.6,13.7,16.0,11.7,7.0,89,55,27,31.99,30.19,9,2,13,0.00
2013-1-3,41.7,27.5,16.7,12.0,8.9,6.0,67,48,25,30.40,30.25,17,4,20,0.00
2013-1-4,46.7,26.1,12.5,12.0,7.2,3.0,75,50,17,30.46,30.33,5,0,9,0.00
2013-1-5,52.9,28.3,10.6,14.0,8.8,4.0,80,50,18,30.52,30.36,4,0,6,0.00
2013-1-6,54.2,32.6,19.5,18.0,13.0,8.0,72,48,22,30.37,30.00,20,2,25,0.00
2013-1-7,50.8,33.8,18.6,23.0,16.6,12.0,80,52,28,30.07,29.93,13,2,20,0.00
2013-1-8,57.6,37.6,20.3,22.0,15.9,9.0,63,44,21,30.25,30.06,8,1,12,0.00
2013-1-9,61.1,38.7,25.4,26.0,19.2,12.0,76,50,20,30.30,30.07,5,1,10,0.00
2013-1-10,52.4,38.3,27.7,29.0,20.1,13.0,71,49,31,30.06,29.69,29,7,36,0.00
2013-1-11,35.9,24.6,11.9,20.0,6.5,-2.0,77,51,22,30.10,29.79,13,4,19,0.00
2013-1-12,33.9,19.2,7.3,15.0,3.6,-2.0,81,53,30,30.23,30.08,9,2,13,0.00
2013-1-13,34.4,17.2,1.7,5.0,0.8,-5.0,79,52,26,30.27,30.14,9,2,12,0.00
2013-1-14,29.6,15.9,3.1,7.0,-0.0,-5.0,81,52,29,30.46,30.21,14,4,20,0.00
2013-1-15,39.4,22.4,8.2,7.0,0.5,-5.0,55,40,25,30.58,30.46,15,5,20,0.00
2013-1-16,51.2,30.4,15.9,20.0,11.6,4.0,66,48,29,30.58,30.38,6,1,10,0.00
2013-1-17,55.6,34.6,21.5,20.0,14.5,11.0,64,47,25,30.48,30.30,11,2,13,0.00
2013-1-18,56.6,33.8,21.1,21.0,15.1,11.0,67,49,25,30.42,30.26,7,1,9,0.00
2013-1-19,58.8,33.7,14.4,22.0,14.8,9.0,82,51,20,30.44,30.29,6,1,10,0.00
2013-1-20,60.4,34.4,17.9,17.0,11.3,4.0,76,44,14,30.37,30.20,5,0,8,0.00
2013-1-21,61.1,37.3,21.7,16.0,9.3,3.0,62,36,12,30.33,30.19,9,1,14,0.00
2013-1-22,67.1,40.2,21.3,21.0,12.8,6.0,55,36,16,30.35,30.23,5,0,8,0.00
2013-1-23,63.8,40.6,23.0,25.0,17.9,12.0,64,44,22,30.36,30.23,4,0,6,0.00
2013-1-24,50.9,44.0,38.2,46.0,34.4,20.0,95,72,43,30.26,30.17,6,1,12,0.15
2013-1-25,56.0,46.5,40.7,52.0,44.4,40.0,97,92,80,30.23,30.00,7,1,8,0.42
2013-1-26,48.1,46.6,45.0,47.0,45.4,44.0,97,95,94,30.01,29.77,12,4,18,1.05
2013-1-27,51.6,45.9,39.5,46.0,42.9,37.0,95,89,74,29.91,29.79,14,6,27,0.10
2013-1-28,39.7,32.8,20.8,38.0,29.1,18.0,94,86,65,30.03,29.78,18,5,22,0.17
2013-1-29,41.9,29.8,17.2,26.0,21.4,15.0,91,73,46,30.30,30.03,15,3,23,0.04
2013-1-30,50.6,34.3,21.9,30.0,24.9,19.0,88,71,44,30.41,30.28,8,1,10,0.00
2013-1-31,56.6,38.8,27.5,34.0,27.8,24.0,89,68,34,32.03,30.19,8,1,12,0.00
2013-2-1,62.1,40.2,24.3,31.0,26.4,21.0,91,63,25,31.59,27.68,5,0,7,0.00
2013-2-2,61.0,42.3,28.4,33.0,27.6,23.0,84,59,29,30.35,30.20,5,1,7,0.00
2013-2-3,51.5,43.2,33.4,40.0,35.0,29.0,90,73,61,30.23,29.98,4,0,9,0.00
2013-2-4,60.4,40.6,27.5,37.0,29.9,25.0,94,70,29,31.04,27.85,8,1,10,0.01
2013-2-5,65.0,42.0,24.7,35.0,28.0,21.0,91,62,24,31.45,27.41,9,1,17,0.00
2013-2-6,59.0,42.5,29.5,37.0,31.4,26.0,89,68,39,30.06,29.91,12,2,18,0.00
2013-2-7,60.2,41.0,24.7,33.0,28.5,22.0,92,66,30,32.20,27.69,13,2,17,0.00
2013-2-8,48.2,40.6,30.8,33.0,24.9,13.0,85,56,30,29.94,29.69,25,7,36,0.00
2013-2-9,33.1,28.7,24.9,28.0,25.5,21.0,93,87,80,30.07,29.68,10,4,18,0.17
2013-2-10,38.3,28.5,20.2,28.0,23.1,17.0,92,81,65,30.08,29.99,16,3,19,0.04
2013-2-11,38.4,27.3,18.2,29.0,21.1,15.0,93,79,45,30.26,30.06,6,1,13,0.04
2013-2-12,42.5,22.2,19.0,22.0,-16.3,-99.9,86,43,27,30.36,30.26,3,-287,7,0.00
2013-2-13,52.5,34.1,21.1,29.0,21.1,15.0,82,62,36,30.32,30.20,12,1,15,0.00
2013-2-14,55.9,38.3,24.0,30.0,23.8,20.0,88,60,31,30.27,30.15,17,4,25,0.00
2013-2-15,61.8,40.9,26.5,26.0,20.6,13.0,72,49,21,32.48,28.09,11,2,15,0.00
2013-2-16,65.1,40.3,21.2,22.0,15.5,12.0,70,43,13,30.42,27.94,11,2,15,0.00
2013-2-17,60.0,40.3,22.0,24.0,16.8,14.0,77,44,18,30.09,29.84,14,3,21,0.00
2013-2-18,61.3,42.8,22.4,23.0,16.2,11.0,77,38,14,32.17,29.93,9,3,15,0.00
2013-2-19,54.8,27.3,22.9,25.0,-21.4,-99.9,77,30,24,29.93,29.57,15,-333,31,0.00
2013-2-20,32.7,18.3,27.1,29.0,-22.4,-99.9,91,52,73,29.93,29.45,8,-380,16,0.05
2013-2-21,40.2,32.0,23.9,32.0,26.2,21.0,88,80,57,30.07,29.93,12,4,17,0.01
2013-2-22,47.3,30.8,14.7,23.0,17.9,12.0,92,64,30,30.23,30.07,8,2,16,0.00
2013-2-23,52.1,35.1,17.7,24.0,19.5,13.0,85,57,31,30.23,29.85,23,5,33,0.00
2013-2-24,40.9,32.3,22.2,24.0,11.8,7.0,82,45,26,30.19,29.88,28,10,32,0.00
2013-2-25,55.6,34.0,15.4,16.0,10.7,6.0,70,41,16,30.31,30.09,11,2,17,0.00
2013-2-26,49.1,33.5,16.0,16.0,8.3,2.0,73,40,16,31.90,30.06,18,5,25,0.00
2013-2-27,51.6,33.5,17.5,10.0,5.2,2.0,58,33,14,30.36,30.24,15,2,20,0.00
2013-2-28,57.1,37.6,21.5,11.0,5.5,1.0,43,28,13,30.46,30.33,14,3,20,0.00
2013-3-1,69.2,45.6,24.6,27.0,19.1,7.0,60,37,20,30.47,30.26,8,2,15,0.00
2013-3-2,73.9,48.1,26.3,30.0,24.1,19.0,75,45,17,30.36,30.12,12,2,15,0.00
2013-3-3,65.2,45.9,28.9,30.0,24.4,22.0,77,47,23,30.13,29.89,13,3,24,0.00
2013-3-4,63.2,48.3,32.7,35.0,28.6,21.0,75,49,27,32.09,29.79,11,2,18,0.00
2013-3-5,64.4,44.6,25.5,34.0,27.1,22.0,91,57,26,30.16,30.00,15,2,20,0.00
2013-3-6,65.6,47.9,27.5,34.0,26.7,22.0,86,49,21,32.07,29.89,17,4,26,0.00
2013-3-7,63.3,46.2,25.7,30.0,24.2,20.0,81,47,20,29.93,29.83,23,5,27,0.00
2013-3-8,49.7,38.2,30.0,41.0,32.3,26.0,93,81,43,29.88,29.62,18,5,31,0.22
2013-3-9,38.0,33.7,29.3,35.0,31.3,27.0,93,91,87,30.16,29.88,12,5,19,0.03
2013-3-10,56.2,40.6,29.0,33.0,27.8,24.0,93,64,35,30.30,30.16,16,3,21,0.00
2013-3-11,67.0,44.7,26.3,32.0,26.2,21.0,84,54,23,31.60,29.93,13,2,15,0.00
2013-3-12,70.8,49.7,27.5,31.0,26.6,21.0,79,46,20,30.17,28.18,10,2,21,0.00
2013-3-13,74.2,52.4,32.6,33.0,27.9,25.0,79,45,16,30.22,30.07,8,2,14,0.00
2013-3-14,80.3,54.7,34.1,34.0,28.4,25.0,70,42,14,32.28,29.99,13,2,19,0.00
2013-3-15,79.2,56.5,34.4,36.0,28.6,23.0,78,41,14,32.16,29.63,16,2,18,0.00
2013-3-16,74.1,53.9,37.8,35.0,29.8,27.0,69,44,19,31.96,29.70,17,3,33,0.00
2013-3-17,72.7,55.1,36.7,34.0,19.0,5.0,66,31,8,31.98,27.74,17,5,30,0.00
2013-3-18,71.3,53.7,33.5,26.0,19.5,9.0,50,28,17,32.10,27.87,16,4,22,0.00
2013-3-19,71.4,56.1,43.7,32.0,27.3,23.0,58,35,18,31.79,29.65,11,2,17,0.00
2013-3-20,68.6,52.8,35.6,33.0,29.4,26.0,71,44,24,29.99,29.76,16,4,24,0.00
2013-3-21,73.7,56.1,37.1,35.0,22.4,7.0,70,32,10,29.75,29.45,17,3,21,0.00
2013-3-22,68.7,47.4,27.6,26.0,12.7,-2.0,52,27,12,31.86,27.49,18,3,26,0.00
2013-3-23,57.3,43.2,28.6,10.0,2.9,-2.0,37,20,10,30.05,29.81,16,4,23,0.00
2013-3-24,64.6,42.1,23.2,21.0,8.6,0.0,41,27,16,30.10,29.92,18,3,24,0.00
2013-3-25,69.6,49.0,27.3,23.0,15.4,7.0,46,28,17,30.07,29.93,14,3,19,0.00
2013-3-26,70.3,51.0,33.7,26.0,19.5,15.0,52,31,17,29.96,29.79,22,4,28,0.00
2013-3-27,68.3,50.2,32.6,28.0,20.8,16.0,58,34,17,29.96,29.84,16,3,23,0.00
2013-3-28,69.7,50.6,29.5,31.0,24.3,18.0,68,39,20,30.04,29.95,18,3,23,0.00
2013-3-29,75.7,54.3,31.9,32.0,27.1,22.0,73,39,19,31.34,29.98,12,2,18,0.00
2013-3-30,70.4,52.7,38.5,33.0,27.6,22.0,58,40,21,30.06,29.94,11,2,20,0.00
2013-3-31,74.0,55.1,32.3,35.0,30.0,25.0,76,43,20,31.62,27.96,21,4,23,0.00
2013-4-1,66.4,52.3,33.2,35.0,26.6,15.0,81,41,18,32.06,29.83,19,4,24,0.00
2013-4-2,67.5,48.7,26.5,30.0,23.7,16.0,72,41,21,32.08,29.86,17,4,27,0.00
2013-4-3,74.7,54.5,33.1,33.0,27.0,22.0,74,40,15,30.05,29.78,13,2,16,0.00
2013-4-4,77.4,58.0,32.1,31.0,25.8,21.0,65,32,16,30.07,29.90,17,3,19,0.00
2013-4-5,73.3,60.6,43.1,37.0,28.9,24.0,54,31,17,29.90,29.74,22,6,33,0.00
2013-4-6,74.5,57.8,34.8,34.0,29.7,24.0,70,37,20,29.88,29.76,15,3,23,0.00
2013-4-7,73.6,54.8,32.8,34.0,29.1,23.0,72,41,21,29.86,27.36,15,3,21,0.00
2013-4-8,57.7,50.2,37.1,38.0,31.2,21.0,73,50,28,29.63,29.23,36,11,48,0.01
2013-4-9,51.0,43.2,34.1,32.0,25.5,17.0,77,52,32,29.91,29.43,21,7,31,0.00
2013-4-10,59.9,45.0,29.3,23.0,18.3,13.0,61,37,19,30.06,29.91,17,5,23,0.00
2013-4-11,69.4,50.6,28.5,27.0,19.8,14.0,59,33,18,30.66,29.76,16,4,22,0.00
2013-4-12,73.0,54.3,29.9,29.0,21.8,14.0,56,31,14,30.59,27.61,16,3,31,0.00
2013-4-13,74.0,59.2,35.5,31.0,25.9,19.0,54,30,17,31.29,29.58,24,8,30,0.00
2013-4-14,71.6,61.5,48.2,35.0,30.8,25.0,45,32,22,31.73,29.41,24,9,31,0.00
2013-4-15,67.6,56.5,47.8,40.0,34.8,31.0,61,45,31,31.76,27.31,26,11,37,0.00
2013-4-16,61.7,51.2,36.4,39.0,28.8,14.0,72,45,22,29.70,29.49,26,13,39,0.00
2013-4-17,53.1,42.0,28.5,30.0,17.6,7.0,85,42,18,30.11,29.71,19,5,25,0.00
2013-4-18,59.0,42.4,24.7,12.0,8.5,3.0,47,27,13,30.24,30.11,20,5,24,0.00
2013-4-19,71.5,48.8,22.5,21.0,12.5,3.0,49,26,12,31.56,29.07,13,3,20,0.00
2013-4-20,74.7,54.9,29.3,25.0,15.9,9.0,44,23,12,31.72,29.74,16,3,26,0.00
2013-4-21,79.2,57.9,33.3,27.0,18.2,9.0,40,23,12,32.03,27.69,15,3,22,0.00
2013-4-22,79.6,63.9,45.7,31.0,23.4,17.0,35,22,15,30.20,29.46,21,5,28,0.00
2013-4-23,71.8,58.4,34.9,26.0,15.4,-4.0,44,21,8,31.92,27.63,18,5,22,0.00
2013-4-24,75.7,54.4,27.1,27.0,13.4,-4.0,33,20,15,31.56,29.78,16,4,25,0.00
2013-4-25,72.8,56.1,33.3,32.0,25.2,16.0,53,32,16,31.16,29.60,14,5,24,0.00
2013-4-26,75.3,56.6,35.4,35.0,29.2,22.0,71,39,18,32.28,29.96,22,2,44,0.00
2013-4-27,79.8,59.5,36.0,25.0,18.1,9.0,47,24,10,31.78,29.66,16,3,19,0.00
2013-4-28,83.9,64.1,37.6,26.0,18.7,9.0,37,19,9,31.78,29.60,9,2,16,0.00
2013-4-29,87.7,67.5,40.8,30.0,22.9,16.0,39,20,10,31.93,28.06,19,4,25,0.00
2013-4-30,83.2,70.1,50.3,31.0,23.8,18.0,35,18,11,31.63,27.86,29,9,38,0.00
2013-5-1,81.3,64.1,44.5,33.0,19.7,3.0,35,19,8,31.80,27.80,13,4,21,0.00
2013-5-2,73.1,55.8,36.5,18.0,9.4,2.0,28,17,10,30.22,29.98,21,8,28,0.00
2013-5-3,80.5,56.9,31.6,20.0,12.1,3.0,31,19,7,31.12,29.80,17,4,27,0.00
2013-5-4,79.4,61.2,32.3,25.0,18.2,10.0,39,21,11,31.43,27.40,18,4,30,0.00
2013-5-5,73.0,62.2,53.9,30.0,25.8,19.0,35,25,19,32.27,29.67,15,7,22,0.00
2013-5-6,67.8,57.3,46.5,43.0,34.1,21.0,66,43,25,29.83,29.72,21,7,32,0.00
2013-5-7,64.6,51.3,38.4,43.0,37.4,34.0,85,62,35,29.92,29.77,20,5,32,0.13
2013-5-8,68.8,51.4,31.4,43.0,32.6,28.0,93,55,26,30.02,29.90,12,2,17,0.01
2013-5-9,68.9,51.2,37.4,44.0,35.0,27.0,81,57,28,30.00,29.89,14,2,24,0.02
2013-5-10,77.6,56.6,34.9,42.0,35.4,28.0,93,53,18,32.21,28.09,18,2,28,0.00
2013-5-11,78.3,60.9,39.7,41.0,33.9,24.0,78,42,18,31.33,30.00,21,4,25,0.00
2013-5-12,84.0,65.4,42.1,37.0,30.3,24.0,52,30,15,31.39,29.84,12,2,21,0.00
2013-5-13,89.3,69.4,44.5,37.0,30.6,25.0,49,27,12,31.99,29.33,12,3,21,0.00
2013-5-14,89.4,71.7,47.6,38.0,32.3,25.0,45,25,15,32.00,29.29,16,4,37,0.00
2013-5-15,83.4,71.0,49.9,31.0,23.4,14.0,33,18,10,31.94,27.91,22,8,31,0.00
2013-5-16,83.3,67.8,45.5,36.0,26.1,17.0,35,22,13,31.66,29.61,21,6,30,0.00
2013-5-17,77.4,66.1,55.0,36.0,31.0,26.0,40,28,18,29.74,29.66,20,8,38,0.00
2013-5-18,77.2,62.8,41.9,39.0,32.7,27.0,62,35,20,29.81,29.71,16,5,31,0.00
2013-5-19,80.4,67.0,50.6,37.0,30.5,22.0,46,27,16,32.00,27.94,20,6,27,0.00
2013-5-20,75.3,60.3,41.2,30.0,25.4,20.0,51,29,15,29.89,29.77,16,4,22,0.00
2013-5-21,83.7,64.8,42.7,35.0,26.6,21.0,50,27,13,29.89,29.66,15,4,20,0.00
2013-5-22,83.1,70.3,50.0,36.0,28.4,19.0,40,22,13,31.74,29.50,23,9,39,0.00
2013-5-23,80.9,68.4,53.2,34.0,27.1,17.0,33,22,14,29.70,29.56,23,9,38,0.00
2013-5-24,81.9,64.4,39.3,29.0,21.3,11.0,34,20,11,29.83,29.70,21,6,33,0.00
2013-5-25,82.6,65.6,44.1,29.0,23.2,17.0,37,22,12,31.75,29.47,25,6,30,0.00
2013-5-26,81.0,64.5,38.8,35.0,23.5,14.0,39,22,14,29.84,28.01,23,6,26,0.00
2013-5-27,81.4,63.3,41.1,33.0,25.7,17.0,40,25,16,31.56,29.47,15,4,26,0.00
2013-5-28,79.9,64.2,43.1,38.0,31.8,21.0,46,31,20,31.65,29.18,19,6,28,0.00
2013-5-29,83.0,68.7,46.7,38.0,34.5,31.0,63,31,18,31.55,29.12,23,5,31,0.00
2013-5-30,84.8,72.1,56.7,46.0,41.3,33.0,58,35,22,31.85,28.92,16,5,27,0.00
2013-5-31,89.8,73.3,50.4,48.0,43.3,36.0,72,37,20,31.93,29.35,13,3,18,0.00
2013-6-1,94.6,74.1,49.2,35.0,29.1,19.0,37,21,11,31.82,29.32,14,4,21,0.00
2013-6-2,93.1,75.2,49.4,39.0,32.1,23.0,36,22,12,29.67,29.16,19,5,27,0.00
2013-6-3,91.5,75.3,54.4,36.0,32.6,28.0,39,23,13,31.85,29.00,19,5,25,0.00
2013-6-4,89.7,73.1,46.7,34.0,29.3,25.0,44,22,12,31.87,29.28,18,5,27,0.00
2013-6-5,94.0,73.8,45.5,36.0,29.4,21.0,39,21,11,29.79,29.39,15,4,28,0.00
2013-6-6,98.2,78.9,50.6,35.0,30.5,24.0,38,19,10,31.79,28.30,16,4,22,0.00
2013-6-7,98.7,79.5,55.8,34.0,29.3,24.0,30,17,8,29.65,29.30,15,4,17,0.00
2013-6-8,97.7,83.3,63.1,38.0,33.4,29.0,29,18,10,31.22,28.93,20,8,28,0.00
2013-6-9,97.4,80.7,58.5,40.0,33.0,23.0,39,20,9,29.62,28.87,17,5,21,0.00
2013-6-10,94.2,77.0,51.3,33.0,24.7,19.0,38,17,7,31.95,27.95,19,6,43,0.00
2013-6-11,94.5,78.3,59.0,37.0,30.8,25.0,35,19,10,31.96,28.27,19,5,23,0.00
2013-6-12,97.6,78.4,50.8,38.0,32.1,24.0,37,20,11,31.99,29.22,22,5,27,0.00
2013-6-13,92.9,79.4,64.6,47.0,39.7,31.0,38,25,15,31.83,28.07,17,6,29,0.00
2013-6-14,92.4,75.7,51.8,41.0,34.9,26.0,39,24,16,29.75,29.33,20,4,24,0.00
2013-6-15,91.2,77.5,56.4,40.0,35.6,30.0,44,24,14,31.88,28.95,23,5,28,0.00
2013-6-16,93.0,76.9,52.4,38.0,32.5,27.0,39,21,12,31.14,29.23,21,4,29,0.00
2013-6-17,92.1,74.6,49.3,33.0,23.7,15.0,37,17,7,29.80,29.49,20,4,25,0.00
2013-6-18,91.8,73.3,46.5,31.0,22.1,14.0,28,16,10,31.79,28.22,18,5,27,0.00
2013-6-19,89.3,76.3,60.3,32.0,27.1,21.0,27,17,11,31.68,28.88,24,8,39,0.00
2013-6-20,88.9,72.1,45.0,34.0,28.0,19.0,36,21,12,31.77,28.12,23,6,29,0.00
2013-6-21,89.2,71.5,48.6,35.0,26.6,19.0,33,20,10,31.78,29.28,26,5,33,0.00
2013-6-22,90.0,72.8,49.4,39.0,29.0,21.0,34,21,12,31.62,29.44,19,4,26,0.00
2013-6-23,89.5,72.2,46.3,35.0,28.3,22.0,39,21,10,31.62,27.97,22,6,29,0.00
2013-6-24,85.8,73.8,59.0,37.0,31.6,20.0,36,22,15,30.94,27.82,21,8,28,0.00
2013-6-25,89.9,70.2,47.2,38.0,28.9,20.0,34,22,14,31.98,27.93,16,4,24,0.00
2013-6-26,95.2,76.2,51.0,38.0,31.1,21.0,33,20,12,32.10,28.54,16,4,22,0.00
2013-6-27,100.1,79.7,53.6,46.0,37.1,29.0,47,24,13,31.20,29.81,16,2,20,0.00
2013-6-28,108.3,83.2,58.5,46.0,38.1,28.0,33,21,10,31.43,29.22,24,3,26,0.00
2013-6-29,104.5,83.8,61.3,51.0,41.4,35.0,39,24,13,29.77,29.23,21,3,34,0.00
2013-6-30,104.9,80.7,63.2,59.0,48.8,40.0,72,36,14,31.78,28.06,29,4,43,0.80
2013-7-1,95.7,82.6,68.3,60.0,54.1,48.0,73,40,21,31.75,28.06,18,3,24,0.00
2013-7-2,95.4,80.2,66.2,59.0,54.5,47.0,67,43,25,31.86,28.06,18,5,30,0.01
2013-7-3,97.7,77.2,65.1,62.0,56.2,53.0,73,52,22,30.28,20.22,16,4,32,0.13
2013-7-4,94.4,78.9,62.0,60.0,55.1,51.0,87,49,24,31.75,29.35,15,5,22,0.00
2013-7-5,91.3,80.3,67.1,57.0,54.2,51.0,66,42,28,31.67,29.25,22,6,26,0.05
2013-7-6,94.7,76.5,65.2,58.0,55.2,52.0,73,50,25,31.03,27.50,15,3,23,0.00
2013-7-7,98.1,79.6,57.2,58.0,51.8,44.0,87,45,20,31.90,29.29,13,2,22,0.00
2013-7-8,99.7,81.3,62.7,52.0,45.7,40.0,52,30,17,31.10,27.36,11,2,18,0.00
2013-7-9,97.3,80.8,61.9,56.0,48.2,38.0,46,33,18,29.80,29.19,14,4,19,0.00
2013-7-10,94.1,77.9,69.7,67.0,57.6,51.0,68,51,28,29.77,29.22,19,3,25,0.01
2013-7-11,84.4,73.1,66.3,67.0,60.9,58.0,89,67,44,29.77,28.92,16,2,23,0.45
2013-7-12,80.4,67.5,60.3,64.0,61.6,58.0,95,82,54,31.94,21.95,13,1,18,1.16
2013-7-13,85.1,70.8,59.0,67.0,62.0,58.0,96,76,45,29.89,29.45,12,1,17,0.06
2013-7-14,86.2,72.7,62.1,64.0,60.2,56.0,91,67,39,32.01,29.29,14,1,18,0.00
2013-7-15,91.9,69.0,60.3,64.0,59.8,55.0,94,75,34,31.51,29.20,14,1,25,0.60
2013-7-16,83.5,69.0,61.5,66.0,62.7,60.0,97,82,51,31.95,28.23,17,1,19,0.01
2013-7-17,87.0,72.2,62.8,67.0,62.0,57.0,96,73,38,30.01,27.97,14,2,25,0.00
2013-7-18,85.0,73.3,64.2,66.0,62.2,58.0,93,70,43,31.99,28.84,8,1,14,0.00
2013-7-19,90.0,74.0,63.1,69.0,62.9,58.0,90,71,34,31.87,29.10,20,2,28,0.02
2013-7-20,88.0,72.1,65.4,68.0,64.6,60.0,94,79,44,31.47,28.64,10,2,25,0.84
2013-7-21,77.5,69.3,63.6,68.0,64.8,62.0,95,86,68,29.84,29.61,10,1,16,0.09
2013-7-22,83.6,70.8,64.6,66.0,63.1,60.0,95,79,49,32.04,29.31,13,2,24,0.00
2013-7-23,82.6,70.9,59.9,67.0,63.1,58.0,97,78,53,32.06,29.66,8,1,13,0.04
2013-7-24,87.6,74.6,61.1,65.0,62.4,59.0,96,69,41,31.95,28.00,12,2,20,0.00
2013-7-25,88.5,72.9,63.7,66.0,62.9,60.0,93,73,46,31.88,29.28,17,2,42,0.15
2013-7-26,82.3,69.3,62.6,68.0,63.7,59.0,97,83,55,32.04,20.05,13,2,23,0.63
2013-7-27,84.5,71.2,60.4,67.0,62.4,59.0,97,76,49,31.51,29.41,16,2,22,0.00
2013-7-28,87.2,72.4,60.2,67.0,60.5,56.0,97,70,36,31.84,27.91,18,2,22,0.01
2013-7-29,86.9,74.7,58.4,62.0,54.3,48.0,94,54,29,32.03,29.00,12,2,21,0.00
2013-7-30,90.4,75.6,57.8,59.0,52.9,48.0,77,48,28,31.93,25.08,15,2,17,0.00
2013-7-31,92.7,76.1,58.0,58.0,54.2,50.0,85,50,28,30.05,24.88,9,1,18,0.00
2013-8-1,89.8,79.1,62.3,60.0,57.6,54.0,83,50,35,31.48,29.29,20,4,23,0.00
2013-8-2,89.8,76.5,61.6,60.0,53.9,49.0,82,49,26,31.48,28.23,19,3,22,0.00
2013-8-3,91.1,77.1,59.0,60.0,52.6,49.0,84,46,26,32.03,29.12,14,2,19,0.00
2013-8-4,90.0,76.2,58.9,57.0,49.0,38.0,73,42,21,32.00,29.23,12,3,21,0.00
2013-8-5,90.2,72.9,52.8,51.0,43.3,37.0,64,37,20,32.02,0.00,14,2,24,0.00
2013-8-6,75.6,71.4,64.8,56.0,53.7,44.0,68,54,37,31.96,29.25,12,3,16,0.00
2013-8-7,88.4,72.3,54.1,57.0,49.9,42.0,89,50,26,32.09,29.39,13,3,22,0.00
2013-8-8,91.2,71.3,50.0,46.0,38.4,33.0,59,34,16,31.88,28.22,12,2,20,0.00
2013-8-9,91.0,72.4,49.4,45.0,37.8,32.0,56,31,16,31.86,27.92,25,4,25,0.00
2013-8-10,90.5,72.4,52.0,42.0,36.4,33.0,56,29,16,31.99,29.27,15,4,24,0.00
2013-8-11,91.2,71.1,49.5,47.0,38.2,31.0,56,33,20,31.96,28.25,17,3,25,0.00
2013-8-12,93.5,74.3,51.6,54.0,42.9,33.0,62,35,19,32.06,27.99,10,4,22,0.00
2013-8-13,93.1,74.3,51.3,47.0,37.6,29.0,48,28,17,32.04,28.41,19,3,23,0.00
2013-8-14,94.3,75.5,53.0,49.0,39.8,28.0,41,29,18,32.10,29.21,11,2,18,0.00
2013-8-15,90.1,76.2,64.5,61.0,54.3,47.0,82,49,29,31.98,29.30,18,3,21,0.02
2013-8-16,93.7,74.0,57.2,63.0,54.0,48.0,74,52,27,32.02,29.07,13,2,20,0.08
2013-8-17,94.2,69.5,59.0,64.0,56.6,51.0,85,66,28,32.12,29.25,17,3,20,0.33
2013-8-18,89.7,72.2,56.8,62.0,57.8,54.0,95,65,33,32.15,24.97,12,1,17,0.01
2013-8-19,94.0,73.6,61.1,63.0,57.2,53.0,85,59,25,32.02,29.30,12,2,26,0.10
2013-8-20,94.8,75.5,55.0,60.0,53.9,50.0,94,54,22,32.00,27.11,9,1,20,0.00
2013-8-21,77.5,70.7,64.4,63.0,58.7,52.0,84,67,41,29.73,27.11,14,2,24,0.05
2013-8-22,85.9,71.4,60.8,61.0,57.8,54.0,92,65,37,32.08,29.37,20,2,20,0.04
2013-8-23,85.5,70.5,58.1,62.0,56.5,52.0,93,65,33,32.00,29.04,9,1,13,0.00
2013-8-24,77.1,64.7,59.3,63.0,57.6,52.0,95,79,46,31.50,27.53,11,1,14,0.30
2013-8-25,65.8,62.9,60.8,63.0,60.9,58.0,96,93,88,32.06,22.73,4,0,5,1.01
2013-8-26,82.4,67.5,61.6,68.0,63.3,61.0,97,87,58,32.15,22.73,8,1,24,0.25
2013-8-27,78.3,68.2,61.4,66.0,62.4,59.0,96,83,57,29.87,29.20,11,1,15,0.03
2013-8-28,87.8,70.3,57.0,65.0,60.2,55.0,96,74,38,32.01,27.88,15,1,17,0.00
2013-8-29,83.2,69.8,59.5,66.0,61.9,57.0,94,77,52,32.04,21.04,11,1,18,0.00
2013-8-30,78.0,67.0,62.6,67.0,64.0,61.0,96,90,65,32.39,29.54,9,1,18,0.49
2013-8-31,81.1,68.3,63.5,69.0,64.0,62.0,97,87,55,32.13,29.37,13,2,16,0.02
2013-9-1,86.1,69.2,59.0,68.0,62.9,58.0,97,82,46,32.06,0.00,14,1,21,0.01
2013-9-2,88.6,71.3,57.2,66.0,60.8,55.0,97,74,34,32.04,27.21,12,1,16,0.04
2013-9-3,90.8,73.6,57.3,64.0,59.2,53.0,96,65,35,31.84,29.27,13,2,18,0.01
2013-9-4,89.2,71.3,61.3,63.0,59.0,56.0,89,68,38,32.02,29.10,9,1,20,0.00
2013-9-5,90.1,72.7,57.1,63.0,55.4,48.0,94,61,24,32.12,28.14,10,1,22,0.00
2013-9-6,88.8,73.4,61.6,62.0,56.8,52.0,87,59,30,32.01,29.29,13,2,38,0.11
2013-9-7,81.4,69.3,59.1,62.0,59.4,57.0,93,73,45,32.06,28.42,11,2,14,0.00
2013-9-8,70.4,63.8,59.6,63.0,60.5,58.0,95,89,72,32.37,27.78,15,1,17,0.20
2013-9-9,66.0,62.2,58.4,62.0,59.7,56.0,97,91,77,31.96,29.65,9,0,13,0.14
2013-9-10,66.0,60.1,55.7,61.0,57.9,54.0,97,92,78,29.84,29.71,5,1,8,0.60
2013-9-11,75.7,62.8,53.5,62.0,57.5,52.0,97,84,52,32.07,27.91,11,2,17,0.21
2013-9-12,80.2,64.1,49.7,60.0,53.6,48.0,97,73,37,29.97,29.59,4,0,9,0.01
2013-9-13,84.5,67.6,51.9,58.0,53.4,49.0,94,65,32,31.65,29.26,4,0,11,0.00
2013-9-14,84.2,64.8,53.5,60.0,53.9,50.0,92,71,35,31.66,29.35,10,1,23,0.43
2013-9-15,85.1,67.2,51.3,60.0,54.1,49.0,95,68,30,31.69,29.45,6,1,13,0.00
2013-9-16,86.2,68.5,52.3,61.0,55.0,50.0,93,66,33,32.01,0.00,7,0,13,0.00
2013-9-17,86.6,70.1,56.0,61.0,54.9,48.0,92,62,34,31.81,27.54,18,2,27,0.00
2013-9-18,84.3,68.5,51.7,53.0,43.8,38.0,85,47,20,32.15,29.08,20,4,31,0.00
2013-9-19,86.2,64.2,44.1,47.0,41.6,34.0,88,50,16,31.91,29.57,5,0,10,0.00
2013-9-20,85.7,64.9,41.5,51.0,44.2,36.0,86,52,24,31.93,29.51,14,3,20,0.00
2013-9-21,83.3,67.9,51.6,56.0,49.9,46.0,83,56,35,31.80,28.02,19,4,31,0.00
2013-9-22,70.8,62.3,44.2,51.0,38.3,26.0,67,44,19,31.59,29.46,17,6,27,0.00
2013-9-23,80.0,58.5,37.6,43.0,35.7,32.0,82,48,19,31.89,29.53,5,0,10,0.00
2013-9-24,82.7,60.8,39.2,41.0,35.5,32.0,78,44,17,32.02,29.08,9,1,17,0.00
2013-9-25,77.3,64.3,47.4,46.0,37.6,32.0,57,39,24,29.76,29.52,20,5,29,0.00
2013-9-26,72.5,62.3,53.7,48.0,37.5,26.0,64,41,25,29.66,29.46,29,7,40,0.00
2013-9-27,67.0,54.0,38.7,33.0,26.8,22.0,65,38,18,32.18,27.92,12,2,15,0.00
2013-9-28,75.3,52.1,31.3,31.0,25.7,23.0,73,42,15,32.29,30.00,6,1,11,0.00
2013-9-29,80.7,57.2,34.8,38.0,28.5,23.0,67,37,18,30.13,29.96,9,2,17,0.00
2013-9-30,82.3,59.0,34.4,36.0,29.0,24.0,68,36,16,29.99,29.84,10,2,15,0.00
2013-10-1,81.1,58.3,37.4,37.0,31.2,26.0,68,40,17,32.01,29.83,14,2,18,0.00
2013-10-2,77.8,58.5,36.5,42.0,33.3,29.0,77,43,19,29.93,29.79,16,4,21,0.00
2013-10-3,75.0,60.1,43.3,46.0,36.2,29.0,76,44,25,29.80,29.63,25,5,27,0.00
2013-10-4,65.8,50.2,37.3,28.0,20.3,15.0,60,34,14,30.13,29.77,14,3,17,0.00
2013-10-5,68.3,49.7,30.1,27.0,20.9,15.0,54,34,20,30.24,30.12,17,3,21,0.00
2013-10-6,77.4,53.2,30.4,26.0,20.0,15.0,56,31,13,30.25,27.61,10,1,13,0.00
2013-10-7,81.4,55.1,31.1,31.0,23.1,17.0,59,32,13,30.11,29.89,7,1,17,0.00
2013-10-8,75.1,56.8,34.9,32.0,27.0,20.0,56,35,18,31.45,29.57,16,4,25,0.00
2013-10-9,66.5,56.6,48.3,43.0,36.1,29.0,65,47,33,29.67,29.52,20,6,32,0.00
2013-10-10,50.1,42.7,33.2,40.0,36.6,31.0,92,80,61,30.01,29.57,12,3,19,0.47
2013-10-11,64.2,45.7,29.0,42.0,35.1,27.0,95,71,34,32.20,29.96,8,1,12,0.01
2013-10-12,70.3,50.4,31.7,41.0,35.0,29.0,94,61,27,30.03,29.87,14,2,23,0.00
2013-10-13,66.6,51.9,32.9,39.0,33.3,29.0,89,53,27,29.95,29.82,25,4,25,0.00
2013-10-14,67.8,49.7,32.8,34.0,30.0,27.0,85,51,24,31.69,28.00,4,0,11,0.00
2013-10-15,68.4,48.1,33.1,33.0,27.8,20.0,81,51,22,32.06,29.79,9,1,16,0.00
2013-10-16,65.3,46.7,30.2,31.0,27.3,24.0,84,52,24,32.27,28.07,3,0,11,0.00
2013-10-17,71.8,49.1,26.3,30.0,25.0,20.0,80,44,17,30.12,29.93,13,1,18,0.00
2013-10-18,71.1,49.3,30.3,28.0,21.8,17.0,71,39,14,30.08,29.97,9,1,14,0.00
2013-10-19,74.7,51.2,32.6,27.0,22.4,19.0,60,37,15,32.16,29.93,5,0,8,0.00
2013-10-20,77.1,52.6,30.1,28.0,21.9,18.0,63,35,15,32.06,29.84,8,1,19,0.00
2013-10-21,74.2,52.0,33.1,27.0,22.0,17.0,53,34,16,32.12,27.69,7,1,8,0.00
2013-10-22,74.6,51.7,32.6,30.0,23.6,20.0,61,38,16,31.73,29.80,6,1,10,0.00
2013-10-23,78.6,54.1,34.1,31.0,24.5,19.0,59,35,16,31.66,29.88,8,1,12,0.00
2013-10-24,76.6,56.5,38.5,33.0,24.8,20.0,55,33,15,31.98,29.50,17,2,21,0.00
2013-10-25,74.0,51.8,31.4,32.0,25.9,19.0,61,40,20,32.18,29.05,8,1,14,0.00
2013-10-26,74.6,54.0,35.0,37.0,30.6,26.0,73,45,21,32.25,27.54,8,1,13,0.00
2013-10-27,75.8,54.7,34.7,37.0,30.3,27.0,74,43,20,31.90,27.74,17,2,19,0.00
2013-10-28,63.5,56.0,47.9,39.0,31.9,27.0,72,41,32,32.20,29.58,32,9,41,0.00
2013-10-29,55.1,43.7,31.6,40.0,30.8,26.0,89,62,40,29.92,29.68,16,3,24,0.00
2013-10-30,58.3,41.2,25.3,33.0,27.0,22.0,93,62,29,30.10,29.92,6,1,14,0.00
2013-10-31,62.7,41.5,24.2,31.0,23.9,19.0,84,55,26,30.20,30.07,3,0,10,0.00
2013-11-1,67.7,45.9,29.1,29.0,24.8,21.0,75,48,22,30.25,26.71,6,1,12,0.00
2013-11-2,74.4,48.3,27.8,29.0,21.8,16.0,69,40,16,30.16,29.88,17,2,23,0.00
2013-11-3,66.6,50.2,34.2,33.0,24.9,19.0,63,39,26,30.18,29.72,16,3,22,0.00
2013-11-4,62.9,42.5,24.7,33.0,22.9,16.0,74,49,27,29.91,29.75,24,2,26,0.00
2013-11-5,56.9,40.8,27.3,30.0,21.5,9.0,87,51,21,30.26,29.91,8,1,13,0.00
2013-11-6,64.5,39.7,21.9,14.0,9.4,6.0,55,33,11,30.43,30.27,7,1,8,0.00
2013-11-7,70.1,45.1,27.6,20.0,11.6,5.0,39,28,14,32.38,30.15,5,1,9,0.00
2013-11-8,72.2,47.4,27.4,31.0,19.9,10.0,53,36,20,32.26,29.20,9,1,13,0.00
2013-11-9,72.4,48.3,26.9,33.0,26.3,19.0,75,46,22,30.17,29.02,7,1,11,0.00
2013-11-10,71.4,47.6,31.0,37.0,29.0,23.0,74,52,28,30.22,29.00,3,0,7,0.00
2013-11-11,73.3,50.1,31.0,34.0,26.3,19.0,73,44,19,30.25,29.14,9,2,12,0.00
2013-11-12,75.0,50.6,32.9,29.0,22.4,17.0,55,36,18,32.45,30.16,6,1,10,0.00
2013-11-13,71.3,53.2,36.1,36.0,27.7,19.0,57,39,22,30.23,26.89,6,1,12,0.00
2013-11-14,70.9,49.9,29.6,36.0,28.3,23.0,76,48,19,32.10,29.41,7,2,14,0.00
2013-11-15,64.8,50.2,37.9,43.0,37.8,31.0,87,65,40,31.75,27.15,21,4,28,0.03
2013-11-16,55.5,46.4,37.4,46.0,39.0,34.0,95,77,54,31.98,29.63,18,4,33,0.01
2013-11-17,60.9,42.2,27.5,43.0,33.3,26.0,95,74,43,30.18,29.87,5,0,12,0.00
2013-11-18,66.2,43.9,26.3,42.0,33.8,24.0,94,71,38,32.27,29.41,10,1,14,0.00
2013-11-19,63.8,45.0,29.7,42.0,35.7,27.0,94,73,41,32.06,29.84,13,2,18,0.00
2013-11-20,56.8,46.7,37.5,42.0,37.6,34.0,89,72,52,29.91,29.78,9,2,16,0.00
2013-11-21,52.7,46.2,41.4,46.0,41.3,37.0,92,83,69,29.91,29.82,12,2,20,0.13
2013-11-22,42.8,41.3,39.9,41.0,39.8,38.0,95,94,92,29.96,29.82,5,1,9,1.04
2013-11-23,43.2,40.4,37.4,41.0,37.5,35.0,95,89,82,30.07,29.93,11,4,17,0.29
2013-11-24,45.6,36.9,28.4,37.0,33.6,26.0,94,88,68,30.21,30.06,8,1,11,0.05
2013-11-25,54.6,37.7,25.9,38.0,30.8,24.0,95,79,45,30.60,27.82,10,1,13,0.01
2013-11-26,57.0,40.2,27.2,33.0,28.5,24.0,89,66,35,32.37,27.48,9,1,14,0.00
2013-11-27,53.0,38.8,26.9,33.0,27.1,24.0,92,67,35,30.28,27.52,11,2,17,0.00
2013-11-28,57.9,38.1,24.2,33.0,27.4,22.0,93,69,34,30.21,30.07,3,0,10,0.00
2013-11-29,59.1,38.2,24.6,36.0,28.9,22.0,92,72,41,32.35,27.79,4,0,9,0.01
2013-11-30,59.0,39.9,28.0,38.0,31.6,26.0,93,75,41,31.64,26.96,6,0,6,0.00
2013-12-1,54.9,37.8,28.3,35.0,29.7,26.0,92,75,43,32.21,24.80,5,1,10,0.00
2013-12-2,66.6,43.7,27.1,33.0,27.3,22.0,87,57,24,31.47,29.23,12,2,12,0.00
2013-12-3,57.2,45.2,34.4,36.0,28.8,24.0,71,54,32,32.39,27.07,21,6,33,0.00
2013-12-4,46.7,36.5,21.5,39.0,29.7,16.0,93,77,56,29.92,29.52,22,5,36,0.14
2013-12-5,38.4,24.4,14.2,21.0,14.2,11.0,87,68,40,30.19,29.91,7,1,12,0.00
2013-12-6,40.3,23.5,8.8,17.0,12.3,5.0,88,66,34,30.32,30.19,8,1,10,0.00
2013-12-7,35.7,28.2,15.7,30.0,21.6,11.0,92,77,61,30.22,29.97,15,5,26,0.00
2013-12-8,37.4,29.5,16.8,30.0,21.8,11.0,92,74,52,30.18,30.00,7,1,15,0.07
2013-12-9,33.2,20.8,10.7,11.0,8.1,3.0,81,60,38,30.59,30.18,14,3,17,0.00
2013-12-10,44.5,23.7,9.4,15.0,8.1,2.0,75,55,27,30.58,30.34,7,1,10,0.00
2013-12-11,49.6,28.9,14.2,18.0,13.0,7.0,76,55,26,30.48,30.39,6,1,11,0.00
2013-12-12,54.8,35.1,23.6,30.0,21.8,14.0,81,60,38,30.45,30.17,3,0,9,0.00
2013-12-13,54.5,35.6,23.4,33.0,25.0,19.0,88,68,40,30.29,30.11,8,1,13,0.00
2013-12-14,52.3,34.7,23.6,23.0,19.3,16.0,77,56,31,31.94,30.29,10,1,15,0.00
2013-12-15,60.8,39.4,22.6,27.0,20.9,15.0,74,51,27,30.49,25.14,7,1,10,0.00
2013-12-16,65.1,42.8,29.2,28.0,23.2,20.0,70,49,22,30.38,24.80,5,1,8,0.00
2013-12-17,61.7,41.3,30.0,30.0,24.1,20.0,70,53,27,32.47,29.23,6,1,9,0.00
2013-12-18,57.4,39.1,27.1,33.0,26.9,22.0,84,64,37,31.36,27.40,4,0,6,0.00
2013-12-19,51.1,42.0,34.0,36.0,30.0,24.0,92,64,41,30.09,29.61,18,4,25,0.02
2013-12-20,45.8,36.7,32.4,37.0,32.7,29.0,94,86,59,29.81,29.66,5,1,9,0.07
2013-12-21,48.6,35.4,24.5,32.0,26.0,21.0,94,71,45,30.07,29.78,10,2,16,0.01
2013-12-22,50.6,33.8,19.7,27.0,22.9,16.0,90,68,37,30.39,24.97,7,0,10,0.00
2013-12-23,52.1,34.8,22.0,26.0,22.4,17.0,86,64,35,30.56,30.39,6,1,12,0.00
2013-12-24,61.7,39.0,21.8,29.0,23.7,18.0,85,59,27,30.72,30.24,4,0,7,0.00
2013-12-25,55.8,37.8,21.6,25.0,16.8,9.0,71,47,20,30.40,30.27,7,1,13,0.00
2013-12-26,58.4,36.3,21.3,18.0,12.7,9.0,64,41,18,30.42,30.28,7,1,10,0.00
2013-12-27,60.0,38.0,23.3,25.0,16.3,9.0,68,44,25,30.71,29.17,8,1,11,0.00
2013-12-28,49.9,33.5,22.0,27.0,21.9,17.0,86,65,40,30.23,30.04,1,0,1,0.00
2013-12-29,52.1,35.7,22.7,22.0,17.3,11.0,79,51,28,30.30,24.55,14,2,17,0.00
2013-12-30,57.5,34.4,15.9,18.0,12.3,8.0,76,44,18,30.43,28.86,3,0,5,0.00
2013-12-31,63.8,37.4,20.0,24.0,17.1,12.0,79,49,19,31.65,24.84,8,1,9,0.00
2014-1-1,62.1,38.5,22.0,25.0,19.2,14.0,73,50,23,30.30,27.04,7,1,15,0.00
2014-1-2,59.0,37.0,23.2,20.0,17.1,14.0,73,49,21,30.59,30.20,5,0,7,0.00